createdAt,value
2019-05-02T00:00:00.692Z,14.50
2019-05-02T00:01:12.623Z,14.50
2019-05-02T00:02:15.644Z,14.50
2019-05-02T00:03:16.856Z,14.50
2019-05-02T00:04:20.029Z,14.50
2019-05-02T00:05:21.281Z,14.40
2019-05-02T00:06:22.500Z,14.40
2019-05-02T00:07:23.616Z,14.40
2019-05-02T00:08:29.196Z,14.40
2019-05-02T00:09:27.776Z,14.40
2019-05-02T00:10:30.230Z,14.40
2019-05-02T00:11:31.261Z,14.30
2019-05-02T00:12:32.370Z,14.30
2019-05-02T00:13:33.392Z,14.30
2019-05-02T00:14:34.700Z,14.30
2019-05-02T00:15:39.516Z,14.30
2019-05-02T00:16:45.198Z,14.30
2019-05-02T00:17:44.044Z,14.30
2019-05-02T00:18:45.062Z,14.20
2019-05-02T00:19:49.854Z,14.20
2019-05-02T00:20:49.015Z,14.20
2019-05-02T00:21:50.028Z,14.20
2019-05-02T00:22:52.251Z,14.20
2019-05-02T00:23:53.966Z,14.20
2019-05-02T00:24:54.984Z,14.20
2019-05-02T00:25:56.000Z,14.20
2019-05-02T00:27:01.213Z,14.20
2019-05-02T00:27:59.937Z,14.20
2019-05-02T00:29:00.963Z,14.10
2019-05-02T00:30:03.985Z,14.10
2019-05-02T00:31:07.368Z,14.10
2019-05-02T00:32:07.920Z,14.10
2019-05-02T00:33:10.429Z,14.10
2019-05-02T00:34:11.652Z,14.10
2019-05-02T00:35:13.076Z,14.10
2019-05-02T00:36:14.120Z,14.10
2019-05-02T00:37:18.880Z,14.00
2019-05-02T00:38:18.064Z,14.00
2019-05-02T00:39:19.184Z,14.00
2019-05-02T00:40:25.533Z,14.00
2019-05-02T00:41:23.130Z,14.00
2019-05-02T00:42:24.233Z,14.00
2019-05-02T00:43:29.053Z,14.00
2019-05-02T00:44:28.172Z,13.90
2019-05-02T00:45:29.188Z,14.00
2019-05-02T00:46:34.961Z,13.90
2019-05-02T00:47:42.176Z,13.90
2019-05-02T00:48:49.329Z,13.90
2019-05-02T00:49:50.349Z,13.90
2019-05-02T00:50:52.502Z,13.90
2019-05-02T00:51:56.567Z,13.90
2019-05-02T00:52:56.636Z,13.80
2019-05-02T00:53:57.651Z,13.80
2019-05-02T00:54:58.963Z,13.80
2019-05-02T00:56:05.171Z,13.80
2019-05-02T00:57:03.825Z,13.90
2019-05-02T00:58:04.845Z,13.80
2019-05-02T00:59:07.596Z,13.80
2019-05-02T01:00:13.325Z,13.80
2019-05-02T01:01:29.376Z,13.80
2019-05-02T01:02:35.821Z,13.80
2019-05-02T01:03:37.728Z,13.80
2019-05-02T01:04:40.565Z,13.80
2019-05-02T01:05:41.613Z,13.70
2019-05-02T01:06:44.703Z,13.80
2019-05-02T01:07:45.644Z,13.70
2019-05-02T01:08:46.659Z,13.70
2019-05-02T01:09:48.068Z,13.80
2019-05-02T01:10:52.058Z,13.80
2019-05-02T01:11:52.110Z,13.70
2019-05-02T01:12:53.133Z,13.70
2019-05-02T01:13:55.873Z,13.70
2019-05-02T01:14:57.207Z,13.70
2019-05-02T01:15:58.244Z,13.70
2019-05-02T01:16:59.287Z,13.70
2019-05-02T01:18:01.074Z,13.70
2019-05-02T01:19:03.230Z,13.70
2019-05-02T01:20:05.749Z,13.70
2019-05-02T01:21:06.769Z,13.70
2019-05-02T01:22:10.750Z,13.70
2019-05-02T01:23:10.708Z,13.70
2019-05-02T01:24:11.747Z,13.70
2019-05-02T01:25:15.786Z,13.70
2019-05-02T01:26:15.989Z,13.70
2019-05-02T01:27:21.457Z,13.70
2019-05-02T01:28:40.796Z,13.70
2019-05-02T01:29:43.717Z,13.70
2019-05-02T01:30:46.628Z,13.70
2019-05-02T01:31:49.866Z,13.70
2019-05-02T01:32:54.395Z,13.70
2019-05-02T01:33:59.820Z,13.60
2019-05-02T01:35:05.522Z,13.60
2019-05-02T01:36:20.546Z,13.60
2019-05-02T01:37:23.481Z,13.60
2019-05-02T01:38:31.830Z,13.60
2019-05-02T01:39:31.826Z,13.50
2019-05-02T01:40:36.864Z,13.50
2019-05-02T01:41:37.905Z,13.50
2019-05-02T01:42:40.206Z,13.40
2019-05-02T01:43:41.845Z,13.40
2019-05-02T01:44:42.865Z,13.40
2019-05-02T01:45:46.648Z,13.40
2019-05-02T01:46:46.900Z,13.30
2019-05-02T01:47:47.936Z,13.20
2019-05-02T01:48:48.956Z,13.20
2019-05-02T01:49:52.028Z,13.20
2019-05-02T01:50:52.992Z,13.10
2019-05-02T01:51:54.012Z,13.10
2019-05-02T01:52:58.512Z,13.10
2019-05-02T01:53:57.984Z,13.00
2019-05-02T01:54:59.006Z,13.00
2019-05-02T01:56:00.202Z,13.00
2019-05-02T01:57:03.942Z,13.00
2019-05-02T01:58:04.152Z,12.90
2019-05-02T01:59:05.175Z,12.90
2019-05-02T02:00:09.447Z,12.80
2019-05-02T02:01:09.909Z,12.70
2019-05-02T02:02:11.156Z,12.70
2019-05-02T02:03:12.184Z,12.70
2019-05-02T02:04:16.200Z,12.60
2019-05-02T02:05:16.113Z,12.60
2019-05-02T02:06:17.136Z,12.60
2019-05-02T02:07:20.038Z,12.60
2019-05-02T02:08:21.081Z,12.60
2019-05-02T02:09:22.116Z,12.60
2019-05-02T02:10:23.134Z,12.50
2019-05-02T02:11:28.241Z,12.50
2019-05-02T02:12:27.061Z,12.50
2019-05-02T02:13:31.232Z,12.50
2019-05-02T02:14:31.004Z,12.50
2019-05-02T02:15:36.242Z,12.50
2019-05-02T02:16:39.342Z,12.40
2019-05-02T02:17:40.269Z,12.40
2019-05-02T02:18:43.200Z,12.40
2019-05-02T02:19:46.126Z,12.30
2019-05-02T02:21:05.613Z,12.40
2019-05-02T02:22:26.662Z,12.30
2019-05-02T02:23:44.890Z,12.30
2019-05-02T02:24:49.279Z,12.30
2019-05-02T02:25:52.196Z,12.20
2019-05-02T02:26:53.216Z,12.20
2019-05-02T02:27:54.917Z,12.10
2019-05-02T02:28:57.151Z,12.20
2019-05-02T02:29:58.170Z,12.10
2019-05-02T02:31:04.739Z,12.20
2019-05-02T02:32:02.221Z,12.10
2019-05-02T02:33:07.377Z,12.10
2019-05-02T02:34:06.646Z,12.10
2019-05-02T02:35:10.118Z,12.10
2019-05-02T02:36:10.776Z,12.10
2019-05-02T02:37:14.760Z,12.10
2019-05-02T02:38:14.710Z,12.10
2019-05-02T02:39:17.070Z,12.10
2019-05-02T02:40:18.359Z,12.00
2019-05-02T02:41:19.360Z,12.00
2019-05-02T02:42:24.919Z,12.00
2019-05-02T02:43:34.026Z,12.00
2019-05-02T02:44:39.962Z,12.00
2019-05-02T02:45:42.229Z,12.00
2019-05-02T02:46:47.458Z,12.00
2019-05-02T02:47:52.896Z,12.10
2019-05-02T02:48:51.389Z,12.00
2019-05-02T02:49:55.794Z,12.10
2019-05-02T02:50:55.341Z,12.00
2019-05-02T02:51:57.810Z,12.00
2019-05-02T02:52:59.301Z,12.10
2019-05-02T02:54:03.914Z,12.10
2019-05-02T02:55:05.151Z,12.10
2019-05-02T02:56:07.264Z,12.10
2019-05-02T02:57:21.875Z,12.10
2019-05-02T02:58:11.222Z,12.10
2019-05-02T02:59:12.308Z,12.20
2019-05-02T03:00:13.736Z,12.20
2019-05-02T03:01:27.719Z,12.20
2019-05-02T03:02:17.720Z,12.20
2019-05-02T03:03:20.983Z,12.20
2019-05-02T03:04:21.665Z,12.10
2019-05-02T03:05:26.188Z,12.10
2019-05-02T03:06:25.709Z,12.10
2019-05-02T03:07:28.908Z,12.10
2019-05-02T03:08:29.651Z,12.10
2019-05-02T03:09:30.672Z,12.10
2019-05-02T03:10:31.790Z,12.10
2019-05-02T03:11:34.812Z,12.10
2019-05-02T03:12:54.387Z,12.00
2019-05-02T03:14:06.012Z,12.00
2019-05-02T03:15:02.212Z,12.00
2019-05-02T03:16:14.201Z,12.00
2019-05-02T03:17:20.267Z,12.00
2019-05-02T03:18:18.140Z,11.90
2019-05-02T03:19:21.125Z,11.90
2019-05-02T03:20:22.104Z,11.90
2019-05-02T03:21:23.117Z,11.80
2019-05-02T03:22:24.153Z,11.80
2019-05-02T03:23:25.273Z,11.80
2019-05-02T03:24:26.434Z,11.80
2019-05-02T03:25:48.946Z,11.70
2019-05-02T03:26:31.074Z,11.70
2019-05-02T03:27:37.250Z,11.70
2019-05-02T03:28:35.110Z,11.70
2019-05-02T03:29:41.023Z,11.70
2019-05-02T03:30:39.166Z,11.70
2019-05-02T03:31:40.181Z,11.70
2019-05-02T03:32:41.301Z,11.70
2019-05-02T03:33:55.029Z,11.70
2019-05-02T03:34:51.667Z,11.70
2019-05-02T03:35:49.621Z,11.60
2019-05-02T03:36:50.814Z,11.60
2019-05-02T03:37:53.139Z,11.60
2019-05-02T03:38:54.474Z,11.60
2019-05-02T03:39:57.742Z,11.70
2019-05-02T03:40:58.728Z,11.60
2019-05-02T03:42:02.820Z,11.60
2019-05-02T03:43:03.090Z,11.60
2019-05-02T03:44:11.190Z,11.60
2019-05-02T03:45:07.434Z,11.60
2019-05-02T03:46:13.695Z,11.60
2019-05-02T03:47:12.006Z,11.60
2019-05-02T03:48:18.199Z,11.60
2019-05-02T03:49:16.057Z,11.60
2019-05-02T03:50:17.081Z,11.60
2019-05-02T03:51:21.248Z,11.70
2019-05-02T03:52:21.114Z,11.70
2019-05-02T03:53:25.128Z,11.70
2019-05-02T03:54:25.256Z,11.70
2019-05-02T03:55:31.260Z,11.70
2019-05-02T03:56:30.001Z,11.70
2019-05-02T03:57:33.376Z,11.70
2019-05-02T03:58:34.473Z,11.70
2019-05-02T03:59:39.077Z,11.70
2019-05-02T04:00:38.416Z,11.70
2019-05-02T04:01:41.372Z,11.70
2019-05-02T04:02:42.433Z,11.70
2019-05-02T04:03:43.716Z,11.70
2019-05-02T04:04:45.969Z,11.70
2019-05-02T04:05:46.993Z,11.80
2019-05-02T04:06:48.115Z,11.80
2019-05-02T04:07:49.134Z,11.70
2019-05-02T04:08:59.130Z,11.70
2019-05-02T04:09:53.398Z,11.70
2019-05-02T04:11:16.028Z,11.70
2019-05-02T04:12:21.543Z,11.70
2019-05-02T04:13:21.578Z,11.70
2019-05-02T04:14:36.750Z,11.70
2019-05-02T04:15:28.803Z,11.60
2019-05-02T04:16:29.548Z,11.60
2019-05-02T04:17:35.357Z,11.60
2019-05-02T04:18:33.598Z,11.60
2019-05-02T04:19:36.328Z,11.60
2019-05-02T04:20:43.577Z,11.70
2019-05-02T04:21:40.879Z,11.70
2019-05-02T04:22:48.507Z,11.70
2019-05-02T04:23:46.842Z,11.70
2019-05-02T04:24:54.512Z,11.70
2019-05-02T04:25:56.731Z,11.70
2019-05-02T04:26:58.901Z,11.70
2019-05-02T04:28:00.123Z,11.70
2019-05-02T04:29:09.841Z,11.70
2019-05-02T04:30:13.911Z,11.80
2019-05-02T04:31:13.806Z,11.80
2019-05-02T04:32:17.694Z,11.80
2019-05-02T04:33:18.805Z,11.80
2019-05-02T04:34:19.820Z,11.90
2019-05-02T04:35:20.852Z,11.90
2019-05-02T04:36:26.701Z,11.90
2019-05-02T04:37:27.705Z,12.00
2019-05-02T04:38:41.723Z,12.00
2019-05-02T04:39:38.854Z,12.00
2019-05-02T04:40:44.241Z,12.00
2019-05-02T04:41:42.471Z,12.00
2019-05-02T04:42:43.773Z,12.00
2019-05-02T04:43:51.512Z,12.00
2019-05-02T04:45:11.692Z,12.00
2019-05-02T04:45:56.101Z,12.00
2019-05-02T04:46:59.763Z,12.00
2019-05-02T04:48:00.876Z,11.90
2019-05-02T04:49:00.277Z,12.00
2019-05-02T04:50:07.984Z,12.00
2019-05-02T04:51:09.953Z,12.00
2019-05-02T04:52:12.307Z,12.00
2019-05-02T04:53:10.971Z,11.90
2019-05-02T04:54:21.369Z,12.00
2019-05-02T04:55:26.147Z,12.00
2019-05-02T04:56:18.613Z,11.90
2019-05-02T04:57:19.763Z,11.90
2019-05-02T04:58:27.540Z,11.90
2019-05-02T04:59:23.711Z,11.90
2019-05-02T05:00:29.123Z,12.00
2019-05-02T05:01:42.068Z,12.00
2019-05-02T05:02:36.319Z,12.00
2019-05-02T05:03:37.676Z,12.00
2019-05-02T05:04:45.765Z,12.00
2019-05-02T05:05:41.697Z,12.00
2019-05-02T05:06:54.953Z,12.00
2019-05-02T05:07:46.500Z,12.00
2019-05-02T05:08:48.620Z,12.00
2019-05-02T05:09:56.990Z,12.00
2019-05-02T05:10:52.545Z,12.00
2019-05-02T05:11:53.816Z,11.90
2019-05-02T05:12:57.172Z,11.90
2019-05-02T05:14:00.316Z,12.00
2019-05-02T05:15:01.673Z,12.00
2019-05-02T05:16:07.133Z,12.00
2019-05-02T05:17:07.883Z,12.10
2019-05-02T05:18:12.699Z,12.10
2019-05-02T05:19:11.660Z,12.10
2019-05-02T05:20:15.674Z,12.10
2019-05-02T05:21:17.966Z,12.10
2019-05-02T05:22:18.724Z,12.10
2019-05-02T05:23:21.715Z,12.10
2019-05-02T05:24:27.982Z,12.10
2019-05-02T05:25:40.020Z,12.20
2019-05-02T05:26:43.105Z,12.20
2019-05-02T05:27:44.164Z,12.20
2019-05-02T05:28:45.189Z,12.20
2019-05-02T05:29:48.525Z,12.20
2019-05-02T05:30:49.631Z,12.20
2019-05-02T05:31:55.081Z,12.20
2019-05-02T05:32:55.121Z,12.30
2019-05-02T05:33:57.929Z,12.40
2019-05-02T05:35:03.516Z,12.40
2019-05-02T05:36:01.976Z,12.50
2019-05-02T05:37:03.505Z,12.50
2019-05-02T05:38:07.749Z,12.60
2019-05-02T05:39:12.299Z,12.60
2019-05-02T05:40:13.511Z,12.60
2019-05-02T05:41:17.252Z,12.70
2019-05-02T05:42:17.912Z,12.70
2019-05-02T05:43:20.581Z,12.70
2019-05-02T05:44:23.235Z,12.70
2019-05-02T05:45:24.743Z,12.80
2019-05-02T05:46:27.785Z,12.80
2019-05-02T05:47:28.693Z,12.90
2019-05-02T05:48:32.190Z,12.90
2019-05-02T05:49:32.639Z,13.00
2019-05-02T05:50:37.661Z,13.00
2019-05-02T05:51:37.501Z,13.00
2019-05-02T05:52:42.255Z,13.10
2019-05-02T05:53:41.593Z,13.10
2019-05-02T05:54:42.608Z,13.20
2019-05-02T05:55:43.621Z,13.20
2019-05-02T05:56:44.636Z,13.20
2019-05-02T05:57:49.711Z,13.20
2019-05-02T05:58:52.576Z,13.20
2019-05-02T05:59:51.536Z,13.20
2019-05-02T06:00:55.341Z,13.20
2019-05-02T06:01:57.731Z,13.20
2019-05-02T06:03:10.136Z,13.20
2019-05-02T06:04:01.300Z,13.20
2019-05-02T06:05:04.340Z,13.20
2019-05-02T06:06:05.356Z,13.20
2019-05-02T06:07:07.258Z,13.30
2019-05-02T06:08:08.509Z,13.30
2019-05-02T06:09:09.580Z,13.30
2019-05-02T06:10:11.072Z,13.30
2019-05-02T06:11:14.919Z,13.30
2019-05-02T06:12:15.008Z,13.30
2019-05-02T06:13:16.039Z,13.40
2019-05-02T06:14:19.932Z,13.40
2019-05-02T06:15:19.995Z,13.40
2019-05-02T06:16:21.034Z,13.40
2019-05-02T06:17:23.092Z,13.40
2019-05-02T06:18:28.446Z,13.30
2019-05-02T06:19:29.632Z,13.40
2019-05-02T06:20:31.905Z,13.30
2019-05-02T06:21:33.193Z,13.30
2019-05-02T06:22:34.229Z,13.20
2019-05-02T06:23:36.363Z,13.20
2019-05-02T06:24:38.165Z,13.20
2019-05-02T06:25:42.536Z,13.20
2019-05-02T06:26:44.677Z,13.20
2019-05-02T06:27:46.173Z,13.20
2019-05-02T06:28:47.343Z,13.20
2019-05-02T06:29:51.119Z,13.20
2019-05-02T06:30:51.458Z,13.30
2019-05-02T06:31:52.472Z,13.30
2019-05-02T06:32:54.851Z,13.30
2019-05-02T06:33:56.408Z,13.30
2019-05-02T06:34:57.431Z,13.30
2019-05-02T06:36:01.430Z,13.30
2019-05-02T06:37:01.380Z,13.30
2019-05-02T06:38:02.609Z,13.40
2019-05-02T06:39:04.719Z,13.40
2019-05-02T06:40:08.140Z,13.50
2019-05-02T06:41:09.800Z,13.50
2019-05-02T06:42:10.813Z,13.50
2019-05-02T06:43:11.854Z,13.60
2019-05-02T06:44:12.871Z,13.60
2019-05-02T06:45:14.093Z,13.60
2019-05-02T06:46:16.575Z,13.60
2019-05-02T06:47:18.029Z,13.60
2019-05-02T06:48:19.302Z,13.60
2019-05-02T06:49:24.255Z,13.60
2019-05-02T06:50:24.895Z,13.60
2019-05-02T06:51:26.376Z,13.70
2019-05-02T06:52:32.580Z,13.60
2019-05-02T06:53:30.313Z,13.60
2019-05-02T06:54:31.421Z,13.70
2019-05-02T06:55:36.282Z,13.70
2019-05-02T06:56:35.471Z,13.70
2019-05-02T06:57:36.501Z,13.80
2019-05-02T06:58:41.843Z,13.90
2019-05-02T06:59:40.452Z,13.90
2019-05-02T07:00:56.646Z,14.00
2019-05-02T07:01:44.514Z,14.00
2019-05-02T07:02:45.528Z,14.00
2019-05-02T07:03:47.606Z,14.10
2019-05-02T07:04:48.778Z,14.20
2019-05-02T07:05:49.797Z,14.30
2019-05-02T07:06:58.699Z,14.30
2019-05-02T07:07:54.240Z,14.30
2019-05-02T07:08:55.279Z,14.40
2019-05-02T07:09:56.482Z,14.40
2019-05-02T07:11:01.231Z,14.40
2019-05-02T07:12:01.635Z,14.40
2019-05-02T07:13:10.658Z,14.40
2019-05-02T07:14:13.189Z,14.40
2019-05-02T07:15:12.082Z,14.40
2019-05-02T07:16:36.833Z,14.50
2019-05-02T07:17:38.413Z,14.50
2019-05-02T07:18:50.129Z,14.60
2019-05-02T07:20:07.283Z,14.60
2019-05-02T07:21:12.158Z,14.70
2019-05-02T07:22:11.430Z,14.80
2019-05-02T07:23:16.050Z,14.80
2019-05-02T07:24:15.392Z,14.90
2019-05-02T07:25:17.515Z,15.00
2019-05-02T07:26:20.953Z,15.10
2019-05-02T07:27:21.480Z,15.10
2019-05-02T07:28:24.117Z,15.20
2019-05-02T07:29:25.357Z,15.20
2019-05-02T07:30:30.106Z,15.20
2019-05-02T07:31:29.293Z,15.20
2019-05-02T07:32:30.316Z,15.20
2019-05-02T07:33:32.438Z,15.20
2019-05-02T07:34:34.366Z,15.20
2019-05-02T07:35:35.380Z,15.30
2019-05-02T07:36:38.254Z,15.40
2019-05-02T07:37:39.324Z,15.50
2019-05-02T07:38:40.358Z,15.50
2019-05-02T07:39:42.277Z,15.60
2019-05-02T07:40:48.092Z,15.60
2019-05-02T07:41:46.802Z,15.70
2019-05-02T07:42:47.816Z,15.70
2019-05-02T07:43:51.998Z,15.70
2019-05-02T07:44:51.764Z,15.70
2019-05-02T07:45:52.776Z,15.80
2019-05-02T07:46:56.924Z,15.80
2019-05-02T07:47:56.720Z,15.90
2019-05-02T07:48:57.752Z,15.90
2019-05-02T07:49:58.773Z,15.90
2019-05-02T07:50:59.808Z,15.80
2019-05-02T07:52:00.840Z,16.00
2019-05-02T07:53:04.307Z,15.90
2019-05-02T07:54:04.893Z,15.90
2019-05-02T07:55:08.335Z,15.90
2019-05-02T07:56:12.518Z,15.90
2019-05-02T07:57:11.852Z,16.00
2019-05-02T07:58:12.876Z,16.10
2019-05-02T07:59:13.912Z,16.10
2019-05-02T08:00:16.444Z,16.10
2019-05-02T08:01:17.483Z,16.10
2019-05-02T08:02:20.245Z,16.20
2019-05-02T08:03:21.417Z,16.20
2019-05-02T08:04:22.452Z,16.20
2019-05-02T08:05:23.868Z,16.30
2019-05-02T08:06:34.955Z,16.30
2019-05-02T08:07:34.371Z,16.30
2019-05-02T08:08:31.842Z,16.40
2019-05-02T08:09:33.068Z,16.40
2019-05-02T08:10:34.092Z,16.40
2019-05-02T08:11:37.154Z,16.40
2019-05-02T08:12:38.337Z,16.40
2019-05-02T08:13:39.348Z,16.40
2019-05-02T08:14:40.384Z,16.40
2019-05-02T08:15:45.721Z,16.40
2019-05-02T08:16:44.325Z,16.40
2019-05-02T08:17:52.963Z,16.50
2019-05-02T08:18:48.293Z,16.50
2019-05-02T08:19:49.316Z,16.60
2019-05-02T08:20:51.020Z,16.60
2019-05-02T08:21:53.253Z,16.70
2019-05-02T08:22:54.371Z,16.70
2019-05-02T08:23:57.257Z,16.80
2019-05-02T08:24:58.308Z,16.90
2019-05-02T08:25:59.325Z,17.00
2019-05-02T08:27:04.926Z,17.00
2019-05-02T08:28:10.026Z,17.10
2019-05-02T08:29:10.892Z,17.20
2019-05-02T08:30:16.928Z,17.20
2019-05-02T08:31:19.026Z,17.30
2019-05-02T08:32:21.061Z,17.40
2019-05-02T08:33:22.073Z,17.40
2019-05-02T08:34:30.697Z,17.50
2019-05-02T08:35:31.708Z,17.50
2019-05-02T08:36:32.724Z,17.60
2019-05-02T08:37:35.171Z,17.60
2019-05-02T08:38:36.662Z,17.70
2019-05-02T08:39:37.692Z,17.70
2019-05-02T08:40:42.271Z,17.80
2019-05-02T08:41:41.634Z,17.80
2019-05-02T08:42:42.716Z,17.80
2019-05-02T08:43:44.938Z,17.90
2019-05-02T08:44:51.070Z,17.90
2019-05-02T08:45:49.570Z,18.00
2019-05-02T08:46:51.446Z,18.00
2019-05-02T08:47:53.517Z,18.10
2019-05-02T08:48:54.531Z,18.10
2019-05-02T08:49:56.702Z,18.10
2019-05-02T08:50:57.978Z,18.10
2019-05-02T08:51:58.996Z,18.20
2019-05-02T08:53:00.025Z,18.20
2019-05-02T08:54:01.141Z,18.30
2019-05-02T08:55:09.534Z,18.30
2019-05-02T08:56:07.399Z,18.30
2019-05-02T08:57:08.437Z,18.40
2019-05-02T08:58:14.507Z,18.40
2019-05-02T08:59:12.352Z,18.50
2019-05-02T09:00:13.868Z,18.50
2019-05-02T09:01:15.504Z,18.50
2019-05-02T09:02:20.994Z,18.50
2019-05-02T09:03:19.652Z,18.50
2019-05-02T09:04:24.222Z,18.50
2019-05-02T09:05:23.604Z,18.50
2019-05-02T09:06:24.624Z,18.50
2019-05-02T09:07:25.654Z,18.50
2019-05-02T09:08:26.756Z,18.50
2019-05-02T09:09:29.340Z,18.50
2019-05-02T09:10:30.613Z,18.50
2019-05-02T09:11:31.632Z,18.50
2019-05-02T09:12:36.916Z,18.40
2019-05-02T09:13:35.576Z,18.40
2019-05-02T09:14:36.616Z,18.40
2019-05-02T09:15:40.180Z,18.40
2019-05-02T09:16:42.629Z,18.40
2019-05-02T09:17:51.645Z,18.40
2019-05-02T09:18:50.980Z,18.40
2019-05-02T09:20:00.358Z,18.40
2019-05-02T09:20:56.330Z,18.50
2019-05-02T09:21:55.196Z,18.50
2019-05-02T09:22:56.228Z,18.50
2019-05-02T09:23:57.236Z,18.60
2019-05-02T09:24:58.256Z,18.60
2019-05-02T09:25:59.288Z,18.70
2019-05-02T09:27:02.383Z,18.70
2019-05-02T09:28:03.347Z,18.80
2019-05-02T09:29:05.494Z,18.80
2019-05-02T09:30:12.079Z,18.90
2019-05-02T09:31:14.993Z,18.90
2019-05-02T09:32:17.122Z,19.00
2019-05-02T09:33:18.928Z,19.10
2019-05-02T09:34:22.889Z,19.10
2019-05-02T09:35:23.134Z,19.20
2019-05-02T09:36:24.305Z,19.20
2019-05-02T09:37:25.332Z,19.30
2019-05-02T09:38:26.354Z,19.30
2019-05-02T09:39:31.912Z,19.30
2019-05-02T09:40:31.916Z,19.40
2019-05-02T09:41:36.282Z,19.40
2019-05-02T09:42:36.424Z,19.40
2019-05-02T09:43:39.078Z,19.50
2019-05-02T09:44:42.478Z,19.50
2019-05-02T09:45:43.955Z,19.50
2019-05-02T09:46:47.461Z,19.50
2019-05-02T09:47:57.248Z,19.50
2019-05-02T09:48:51.937Z,19.50
2019-05-02T09:50:06.980Z,19.50
2019-05-02T09:51:12.861Z,19.50
2019-05-02T09:52:11.907Z,19.60
2019-05-02T09:53:20.349Z,19.60
2019-05-02T09:54:15.973Z,19.60
2019-05-02T09:55:17.380Z,19.60
2019-05-02T09:56:18.410Z,19.70
2019-05-02T09:57:19.435Z,19.70
2019-05-02T09:58:21.896Z,19.70
2019-05-02T09:59:30.085Z,19.70
2019-05-02T10:00:36.534Z,19.70
2019-05-02T10:01:39.400Z,19.70
2019-05-02T10:02:41.842Z,19.70
2019-05-02T10:03:43.039Z,19.70
2019-05-02T10:04:44.212Z,19.80
2019-05-02T10:05:45.429Z,19.80
2019-05-02T10:06:46.456Z,19.80
2019-05-02T10:07:48.655Z,19.80
2019-05-02T10:08:51.829Z,19.90
2019-05-02T10:09:52.912Z,19.90
2019-05-02T10:10:54.032Z,19.90
2019-05-02T10:11:55.050Z,19.90
2019-05-02T10:12:56.177Z,19.90
2019-05-02T10:14:02.520Z,20.00
2019-05-02T10:15:09.531Z,20.00
2019-05-02T10:16:12.271Z,20.00
2019-05-02T10:17:13.493Z,20.00
2019-05-02T10:18:14.833Z,20.10
2019-05-02T10:19:17.420Z,20.10
2019-05-02T10:20:18.447Z,20.10
2019-05-02T10:21:19.472Z,20.10
2019-05-02T10:22:22.801Z,20.10
2019-05-02T10:23:24.347Z,20.20
2019-05-02T10:24:25.401Z,20.20
2019-05-02T10:25:32.740Z,20.30
2019-05-02T10:26:29.338Z,20.30
2019-05-02T10:27:32.179Z,20.30
2019-05-02T10:28:33.283Z,20.30
2019-05-02T10:29:34.297Z,20.30
2019-05-02T10:30:36.203Z,20.30
2019-05-02T10:31:37.864Z,20.30
2019-05-02T10:32:39.252Z,20.30
2019-05-02T10:33:41.941Z,20.30
2019-05-02T10:34:47.419Z,20.30
2019-05-02T10:35:48.549Z,20.40
2019-05-02T10:36:54.132Z,20.40
2019-05-02T10:37:52.491Z,20.40
2019-05-02T10:38:58.902Z,20.50
2019-05-02T10:39:56.440Z,20.50
2019-05-02T10:41:01.754Z,20.60
2019-05-02T10:42:02.083Z,20.60
2019-05-02T10:43:03.731Z,20.60
2019-05-02T10:44:04.746Z,20.70
2019-05-02T10:45:07.580Z,20.70
2019-05-02T10:46:27.788Z,20.70
2019-05-02T10:47:30.331Z,20.70
2019-05-02T10:48:33.232Z,20.70
2019-05-02T10:49:48.304Z,20.70
2019-05-02T10:50:52.491Z,20.70
2019-05-02T10:51:54.405Z,20.70
2019-05-02T10:52:55.446Z,20.70
2019-05-02T10:53:56.783Z,20.70
2019-05-02T10:54:57.913Z,20.60
2019-05-02T10:55:59.098Z,20.60
2019-05-02T10:57:02.232Z,20.60
2019-05-02T10:58:03.088Z,20.60
2019-05-02T10:59:04.209Z,20.50
2019-05-02T11:00:14.828Z,20.50
2019-05-02T11:01:16.348Z,20.50
2019-05-02T11:02:25.352Z,20.60
2019-05-02T11:03:37.890Z,20.50
2019-05-02T11:04:38.956Z,20.50
2019-05-02T11:05:42.078Z,20.30
2019-05-02T11:06:46.311Z,20.30
2019-05-02T11:07:46.046Z,20.30
2019-05-02T11:08:47.194Z,20.20
2019-05-02T11:09:48.300Z,20.20
2019-05-02T11:10:49.341Z,20.30
2019-05-02T11:11:51.987Z,20.30
2019-05-02T11:13:03.982Z,20.30
2019-05-02T11:14:23.530Z,20.30
2019-05-02T11:15:35.241Z,20.30
2019-05-02T11:16:51.979Z,20.30
2019-05-02T11:17:53.106Z,20.30
2019-05-02T11:18:56.073Z,20.30
2019-05-02T11:19:58.993Z,20.30
2019-05-02T11:21:04.411Z,20.40
2019-05-02T11:22:03.336Z,20.40
2019-05-02T11:23:04.352Z,20.40
2019-05-02T11:24:05.378Z,20.50
2019-05-02T11:25:06.593Z,20.60
2019-05-02T11:26:07.633Z,20.70
2019-05-02T11:27:08.661Z,20.70
2019-05-02T11:28:10.068Z,20.70
2019-05-02T11:29:12.133Z,20.80
2019-05-02T11:30:16.882Z,20.80
2019-05-02T11:31:16.729Z,20.80
2019-05-02T11:32:17.763Z,20.90
2019-05-02T11:33:18.818Z,20.90
2019-05-02T11:34:21.589Z,21.00
2019-05-02T11:35:22.845Z,21.00
2019-05-02T11:36:23.863Z,21.10
2019-05-02T11:37:24.900Z,21.20
2019-05-02T11:38:39.568Z,21.20
2019-05-02T11:39:40.541Z,21.30
2019-05-02T11:40:32.225Z,21.30
2019-05-02T11:41:33.308Z,21.30
2019-05-02T11:42:34.371Z,21.30
2019-05-02T11:43:37.196Z,21.30
2019-05-02T11:44:38.364Z,21.30
2019-05-02T11:45:39.496Z,21.40
2019-05-02T11:46:42.918Z,21.40
2019-05-02T11:47:43.428Z,21.40
2019-05-02T11:48:55.378Z,21.40
2019-05-02T11:49:52.169Z,21.40
2019-05-02T11:50:52.338Z,21.40
2019-05-02T11:51:56.992Z,21.30
2019-05-02T11:52:56.598Z,21.30
2019-05-02T11:53:59.242Z,21.30
2019-05-02T11:55:02.024Z,21.30
2019-05-02T11:56:07.327Z,21.30
2019-05-02T11:57:06.487Z,21.30
2019-05-02T11:58:08.409Z,21.30
2019-05-02T11:59:14.427Z,21.30
2019-05-02T12:00:13.868Z,21.30
2019-05-02T12:01:20.220Z,21.30
2019-05-02T12:02:28.782Z,21.30
2019-05-02T12:03:42.277Z,21.30
2019-05-02T12:04:47.253Z,21.40
2019-05-02T12:05:46.504Z,21.40
2019-05-02T12:06:50.019Z,21.40
2019-05-02T12:07:52.194Z,21.40
2019-05-02T12:08:53.375Z,21.30
2019-05-02T12:09:57.088Z,21.30
2019-05-02T12:10:57.312Z,21.30
2019-05-02T12:11:58.333Z,21.30
2019-05-02T12:12:59.365Z,21.30
2019-05-02T12:14:01.750Z,21.30
2019-05-02T12:15:04.300Z,21.30
2019-05-02T12:16:08.595Z,21.30
2019-05-02T12:17:09.764Z,21.30
2019-05-02T12:18:12.078Z,21.40
2019-05-02T12:19:14.908Z,21.40
2019-05-02T12:20:16.248Z,21.50
2019-05-02T12:21:17.392Z,21.60
2019-05-02T12:22:18.409Z,21.70
2019-05-02T12:23:19.550Z,21.70
2019-05-02T12:24:22.155Z,21.80
2019-05-02T12:25:23.287Z,21.80
2019-05-02T12:26:24.308Z,21.90
2019-05-02T12:27:25.421Z,21.90
2019-05-02T12:28:26.756Z,21.90
2019-05-02T12:29:27.780Z,22.00
2019-05-02T12:30:29.082Z,22.00
2019-05-02T12:31:32.477Z,22.00
2019-05-02T12:32:33.668Z,22.00
2019-05-02T12:33:36.596Z,22.10
2019-05-02T12:34:37.621Z,22.10
2019-05-02T12:35:38.636Z,22.20
2019-05-02T12:36:39.669Z,22.20
2019-05-02T12:37:42.441Z,22.20
2019-05-02T12:38:43.633Z,22.20
2019-05-02T12:39:44.648Z,22.20
2019-05-02T12:40:45.665Z,22.20
2019-05-02T12:41:46.986Z,22.20
2019-05-02T12:42:48.318Z,22.20
2019-05-02T12:43:49.344Z,22.20
2019-05-02T12:44:50.357Z,22.30
2019-05-02T12:45:52.778Z,22.30
2019-05-02T12:46:54.097Z,22.30
2019-05-02T12:47:55.122Z,22.30
2019-05-02T12:48:56.156Z,22.30
2019-05-02T12:49:57.170Z,22.30
2019-05-02T12:50:58.193Z,22.20
2019-05-02T12:51:59.239Z,22.10
2019-05-02T12:53:00.248Z,22.20
2019-05-02T12:54:02.293Z,22.10
2019-05-02T12:55:05.394Z,22.10
2019-05-02T12:56:06.417Z,22.10
2019-05-02T12:57:07.429Z,22.10
2019-05-02T12:58:08.453Z,22.00
2019-05-02T12:59:11.693Z,22.00
2019-05-02T13:00:14.136Z,22.00
2019-05-02T13:01:15.267Z,22.10
2019-05-02T13:02:18.193Z,22.10
2019-05-02T13:03:39.466Z,22.10
2019-05-02T13:04:41.871Z,22.00
2019-05-02T13:05:43.020Z,21.90
2019-05-02T13:06:44.039Z,21.80
2019-05-02T13:07:50.512Z,21.70
2019-05-02T13:08:48.034Z,21.70
2019-05-02T13:09:49.064Z,21.70
2019-05-02T13:11:13.719Z,21.70
2019-05-02T13:12:14.868Z,21.70
2019-05-02T13:13:16.259Z,21.70
2019-05-02T13:14:19.921Z,21.70
2019-05-02T13:15:22.027Z,21.80
2019-05-02T13:16:23.192Z,21.80
2019-05-02T13:17:24.222Z,21.80
2019-05-02T13:18:27.273Z,21.90
2019-05-02T13:19:38.177Z,22.10
2019-05-02T13:20:36.610Z,22.20
2019-05-02T13:21:41.893Z,22.30
2019-05-02T13:22:53.044Z,22.40
2019-05-02T13:23:55.995Z,22.40
2019-05-02T13:24:58.950Z,22.50
2019-05-02T13:25:59.964Z,22.60